sensor_id;sensor_type;location;lat;lon;timestamp;P1;durP1;ratioP1;P2;durP2;ratioP2
32319;SDS011;19080;51.750;5.888;2022-08-25T00:01:43;5.25;;;2.78;;
32319;SDS011;19080;51.750;5.888;2022-08-25T00:04:12;5.63;;;3.42;;
32319;SDS011;19080;51.750;5.888;2022-08-25T00:06:39;7.93;;;3.28;;
32319;SDS011;19080;51.750;5.888;2022-08-25T00:09:07;5.03;;;3.58;;
32319;SDS011;19080;51.750;5.888;2022-08-25T00:11:34;6.53;;;3.40;;
32319;SDS011;19080;51.750;5.888;2022-08-25T00:14:03;4.47;;;3.55;;
32319;SDS011;19080;51.750;5.888;2022-08-25T00:16:30;5.10;;;3.20;;
32319;SDS011;19080;51.750;5.888;2022-08-25T00:18:58;6.45;;;3.35;;
32319;SDS011;19080;51.750;5.888;2022-08-25T00:21:25;8.40;;;3.55;;
32319;SDS011;19080;51.750;5.888;2022-08-25T00:23:51;4.93;;;3.08;;
32319;SDS011;19080;51.750;5.888;2022-08-25T00:26:18;5.40;;;3.28;;
32319;SDS011;19080;51.750;5.888;2022-08-25T00:28:46;8.02;;;2.90;;
32319;SDS011;19080;51.750;5.888;2022-08-25T00:31:13;4.75;;;2.80;;
32319;SDS011;19080;51.750;5.888;2022-08-25T00:33:41;4.63;;;3.38;;
32319;SDS011;19080;51.750;5.888;2022-08-25T00:36:08;4.20;;;2.65;;
32319;SDS011;19080;51.750;5.888;2022-08-25T00:38:40;9.90;;;3.28;;
32319;SDS011;19080;51.750;5.888;2022-08-25T00:41:07;3.55;;;3.08;;
32319;SDS011;19080;51.750;5.888;2022-08-25T00:46:06;4.43;;;3.20;;
32319;SDS011;19080;51.750;5.888;2022-08-25T00:48:33;3.30;;;3.00;;
32319;SDS011;19080;51.750;5.888;2022-08-25T00:51:00;4.05;;;3.20;;
32319;SDS011;19080;51.750;5.888;2022-08-25T00:53:28;4.55;;;3.35;;
32319;SDS011;19080;51.750;5.888;2022-08-25T00:55:55;4.95;;;3.40;;
32319;SDS011;19080;51.750;5.888;2022-08-25T00:58:23;6.47;;;3.63;;
32319;SDS011;19080;51.750;5.888;2022-08-25T01:00:52;9.88;;;3.58;;
32319;SDS011;19080;51.750;5.888;2022-08-25T01:03:21;3.63;;;3.17;;
32319;SDS011;19080;51.750;5.888;2022-08-25T01:05:58;5.00;;;3.10;;
32319;SDS011;19080;51.750;5.888;2022-08-25T01:08:26;9.10;;;3.70;;
32319;SDS011;19080;51.750;5.888;2022-08-25T01:10:55;6.50;;;3.40;;
32319;SDS011;19080;51.750;5.888;2022-08-25T01:13:26;4.80;;;3.30;;
32319;SDS011;19080;51.750;5.888;2022-08-25T01:15:54;4.90;;;3.25;;
32319;SDS011;19080;51.750;5.888;2022-08-25T01:18:22;5.50;;;4.00;;
32319;SDS011;19080;51.750;5.888;2022-08-25T01:20:52;4.18;;;3.22;;
32319;SDS011;19080;51.750;5.888;2022-08-25T01:23:19;5.88;;;3.63;;
32319;SDS011;19080;51.750;5.888;2022-08-25T01:25:51;5.22;;;3.47;;
32319;SDS011;19080;51.750;5.888;2022-08-25T01:28:22;4.90;;;3.38;;
32319;SDS011;19080;51.750;5.888;2022-08-25T01:30:48;3.95;;;3.13;;
32319;SDS011;19080;51.750;5.888;2022-08-25T01:33:15;7.15;;;3.05;;
32319;SDS011;19080;51.750;5.888;2022-08-25T01:35:46;5.93;;;3.28;;
32319;SDS011;19080;51.750;5.888;2022-08-25T01:38:13;4.40;;;3.10;;
32319;SDS011;19080;51.750;5.888;2022-08-25T01:40:39;5.80;;;3.10;;
32319;SDS011;19080;51.750;5.888;2022-08-25T01:45:33;5.18;;;2.90;;
32319;SDS011;19080;51.750;5.888;2022-08-25T01:48:00;4.28;;;2.90;;
32319;SDS011;19080;51.750;5.888;2022-08-25T01:50:26;4.45;;;2.90;;
32319;SDS011;19080;51.750;5.888;2022-08-25T01:52:55;6.43;;;3.15;;
32319;SDS011;19080;51.750;5.888;2022-08-25T01:55:23;4.25;;;2.72;;
32319;SDS011;19080;51.750;5.888;2022-08-25T01:57:50;3.10;;;2.75;;
32319;SDS011;19080;51.750;5.888;2022-08-25T02:00:17;4.63;;;3.33;;
32319;SDS011;19080;51.750;5.888;2022-08-25T02:02:45;4.30;;;2.67;;
32319;SDS011;19080;51.750;5.888;2022-08-25T02:05:17;7.20;;;3.30;;
32319;SDS011;19080;51.750;5.888;2022-08-25T02:07:48;8.17;;;3.17;;
32319;SDS011;19080;51.750;5.888;2022-08-25T02:10:15;4.45;;;3.05;;
32319;SDS011;19080;51.750;5.888;2022-08-25T02:12:41;6.20;;;2.88;;
32319;SDS011;19080;51.750;5.888;2022-08-25T02:15:08;6.13;;;2.80;;
32319;SDS011;19080;51.750;5.888;2022-08-25T02:17:34;6.50;;;2.88;;
32319;SDS011;19080;51.750;5.888;2022-08-25T02:20:03;3.40;;;2.35;;
32319;SDS011;19080;51.750;5.888;2022-08-25T02:22:30;4.95;;;2.80;;
32319;SDS011;19080;51.750;5.888;2022-08-25T02:24:57;6.68;;;2.67;;
32319;SDS011;19080;51.750;5.888;2022-08-25T02:27:24;5.10;;;2.70;;
32319;SDS011;19080;51.750;5.888;2022-08-25T02:29:50;6.32;;;2.67;;
32319;SDS011;19080;51.750;5.888;2022-08-25T02:32:17;5.05;;;2.95;;
32319;SDS011;19080;51.750;5.888;2022-08-25T02:34:44;5.68;;;2.97;;
32319;SDS011;19080;51.750;5.888;2022-08-25T02:37:10;6.70;;;3.00;;
32319;SDS011;19080;51.750;5.888;2022-08-25T02:39:37;4.03;;;3.17;;
32319;SDS011;19080;51.750;5.888;2022-08-25T02:42:04;5.18;;;3.17;;
32319;SDS011;19080;51.750;5.888;2022-08-25T02:44:30;7.40;;;3.03;;
32319;SDS011;19080;51.750;5.888;2022-08-25T02:46:57;6.40;;;3.00;;
32319;SDS011;19080;51.750;5.888;2022-08-25T02:49:24;10.30;;;2.95;;
32319;SDS011;19080;51.750;5.888;2022-08-25T02:51:50;7.30;;;2.97;;
32319;SDS011;19080;51.750;5.888;2022-08-25T02:54:17;5.10;;;3.08;;
32319;SDS011;19080;51.750;5.888;2022-08-25T02:56:43;4.38;;;2.92;;
32319;SDS011;19080;51.750;5.888;2022-08-25T02:59:10;8.45;;;3.38;;
32319;SDS011;19080;51.750;5.888;2022-08-25T03:01:36;4.60;;;3.00;;
32319;SDS011;19080;51.750;5.888;2022-08-25T03:04:03;5.70;;;2.72;;
32319;SDS011;19080;51.750;5.888;2022-08-25T03:06:29;9.10;;;2.85;;
32319;SDS011;19080;51.750;5.888;2022-08-25T03:08:56;4.90;;;2.67;;
32319;SDS011;19080;51.750;5.888;2022-08-25T03:11:22;4.20;;;2.70;;
32319;SDS011;19080;51.750;5.888;2022-08-25T03:13:52;6.10;;;2.80;;
32319;SDS011;19080;51.750;5.888;2022-08-25T03:16:19;3.97;;;2.78;;
32319;SDS011;19080;51.750;5.888;2022-08-25T03:18:45;5.50;;;3.03;;
32319;SDS011;19080;51.750;5.888;2022-08-25T03:21:12;3.75;;;2.42;;
32319;SDS011;19080;51.750;5.888;2022-08-25T03:23:42;6.15;;;2.45;;
32319;SDS011;19080;51.750;5.888;2022-08-25T03:26:09;8.40;;;2.70;;
32319;SDS011;19080;51.750;5.888;2022-08-25T03:28:54;5.03;;;3.00;;
32319;SDS011;19080;51.750;5.888;2022-08-25T03:31:21;6.13;;;2.92;;
32319;SDS011;19080;51.750;5.888;2022-08-25T03:33:48;4.65;;;2.80;;
32319;SDS011;19080;51.750;5.888;2022-08-25T03:36:14;5.03;;;2.70;;
32319;SDS011;19080;51.750;5.888;2022-08-25T03:38:41;4.20;;;2.97;;
32319;SDS011;19080;51.750;5.888;2022-08-25T03:41:11;3.67;;;2.85;;
32319;SDS011;19080;51.750;5.888;2022-08-25T03:46:07;5.72;;;3.08;;
32319;SDS011;19080;51.750;5.888;2022-08-25T03:48:34;4.25;;;2.72;;
32319;SDS011;19080;51.750;5.888;2022-08-25T03:51:00;5.93;;;2.65;;
32319;SDS011;19080;51.750;5.888;2022-08-25T03:53:27;4.25;;;2.58;;
32319;SDS011;19080;51.750;5.888;2022-08-25T03:55:53;5.95;;;3.03;;
32319;SDS011;19080;51.750;5.888;2022-08-25T03:58:20;7.05;;;2.95;;
32319;SDS011;19080;51.750;5.888;2022-08-25T04:00:46;4.22;;;2.92;;
32319;SDS011;19080;51.750;5.888;2022-08-25T04:03:13;3.75;;;2.60;;
32319;SDS011;19080;51.750;5.888;2022-08-25T04:05:39;6.63;;;2.88;;
32319;SDS011;19080;51.750;5.888;2022-08-25T04:08:07;4.18;;;2.40;;
32319;SDS011;19080;51.750;5.888;2022-08-25T04:10:35;5.57;;;2.63;;
32319;SDS011;19080;51.750;5.888;2022-08-25T04:13:01;6.88;;;2.70;;
32319;SDS011;19080;51.750;5.888;2022-08-25T04:15:28;4.72;;;2.75;;
32319;SDS011;19080;51.750;5.888;2022-08-25T04:17:55;4.47;;;2.47;;
32319;SDS011;19080;51.750;5.888;2022-08-25T04:20:24;13.82;;;3.00;;
32319;SDS011;19080;51.750;5.888;2022-08-25T04:22:50;8.93;;;2.97;;
32319;SDS011;19080;51.750;5.888;2022-08-25T04:25:16;4.25;;;2.55;;
32319;SDS011;19080;51.750;5.888;2022-08-25T04:27:43;5.50;;;2.15;;
32319;SDS011;19080;51.750;5.888;2022-08-25T04:30:09;4.13;;;2.08;;
32319;SDS011;19080;51.750;5.888;2022-08-25T04:32:36;6.10;;;3.00;;
32319;SDS011;19080;51.750;5.888;2022-08-25T04:35:03;8.27;;;2.63;;
32319;SDS011;19080;51.750;5.888;2022-08-25T04:37:30;3.85;;;2.55;;
32319;SDS011;19080;51.750;5.888;2022-08-25T04:39:56;4.70;;;2.47;;
32319;SDS011;19080;51.750;5.888;2022-08-25T04:42:23;5.18;;;2.60;;
32319;SDS011;19080;51.750;5.888;2022-08-25T04:44:51;4.95;;;2.08;;
32319;SDS011;19080;51.750;5.888;2022-08-25T04:47:18;6.65;;;2.88;;
32319;SDS011;19080;51.750;5.888;2022-08-25T04:49:44;7.90;;;2.53;;
32319;SDS011;19080;51.750;5.888;2022-08-25T04:52:11;4.63;;;2.25;;
32319;SDS011;19080;51.750;5.888;2022-08-25T04:54:40;6.72;;;2.83;;
32319;SDS011;19080;51.750;5.888;2022-08-25T04:57:07;4.05;;;2.72;;
32319;SDS011;19080;51.750;5.888;2022-08-25T04:59:33;10.07;;;2.55;;
32319;SDS011;19080;51.750;5.888;2022-08-25T05:02:00;3.70;;;2.42;;
32319;SDS011;19080;51.750;5.888;2022-08-25T05:04:31;3.65;;;2.50;;
32319;SDS011;19080;51.750;5.888;2022-08-25T05:06:59;3.55;;;2.63;;
32319;SDS011;19080;51.750;5.888;2022-08-25T05:09:25;6.10;;;2.03;;
32319;SDS011;19080;51.750;5.888;2022-08-25T05:11:53;4.30;;;2.63;;
32319;SDS011;19080;51.750;5.888;2022-08-25T05:14:20;5.28;;;2.95;;
32319;SDS011;19080;51.750;5.888;2022-08-25T05:16:52;2.65;;;2.22;;
32319;SDS011;19080;51.750;5.888;2022-08-25T05:19:18;2.78;;;2.30;;
32319;SDS011;19080;51.750;5.888;2022-08-25T05:21:45;3.58;;;2.60;;
32319;SDS011;19080;51.750;5.888;2022-08-25T05:24:12;3.55;;;2.65;;
32319;SDS011;19080;51.750;5.888;2022-08-25T05:26:38;5.35;;;2.60;;
32319;SDS011;19080;51.750;5.888;2022-08-25T05:29:05;6.95;;;2.95;;
32319;SDS011;19080;51.750;5.888;2022-08-25T05:31:32;6.03;;;3.17;;
32319;SDS011;19080;51.750;5.888;2022-08-25T05:34:04;5.18;;;2.78;;
32319;SDS011;19080;51.750;5.888;2022-08-25T05:36:31;3.50;;;2.53;;
32319;SDS011;19080;51.750;5.888;2022-08-25T05:38:59;6.57;;;2.95;;
32319;SDS011;19080;51.750;5.888;2022-08-25T05:41:26;5.25;;;3.25;;
32319;SDS011;19080;51.750;5.888;2022-08-25T05:43:53;4.28;;;2.40;;
32319;SDS011;19080;51.750;5.888;2022-08-25T05:46:20;6.05;;;2.90;;
32319;SDS011;19080;51.750;5.888;2022-08-25T05:48:47;5.03;;;3.05;;
32319;SDS011;19080;51.750;5.888;2022-08-25T05:51:14;8.95;;;3.17;;
32319;SDS011;19080;51.750;5.888;2022-08-25T05:53:43;6.65;;;3.03;;
32319;SDS011;19080;51.750;5.888;2022-08-25T05:56:10;6.63;;;3.10;;
32319;SDS011;19080;51.750;5.888;2022-08-25T05:58:37;5.03;;;3.20;;
32319;SDS011;19080;51.750;5.888;2022-08-25T06:01:05;4.93;;;2.97;;
32319;SDS011;19080;51.750;5.888;2022-08-25T06:03:50;9.40;;;3.38;;
32319;SDS011;19080;51.750;5.888;2022-08-25T06:06:20;6.93;;;2.80;;
32319;SDS011;19080;51.750;5.888;2022-08-25T06:08:47;6.32;;;3.53;;
32319;SDS011;19080;51.750;5.888;2022-08-25T06:11:14;7.53;;;2.95;;
32319;SDS011;19080;51.750;5.888;2022-08-25T06:13:41;4.32;;;2.72;;
32319;SDS011;19080;51.750;5.888;2022-08-25T06:16:08;10.35;;;3.22;;
32319;SDS011;19080;51.750;5.888;2022-08-25T06:18:35;4.35;;;3.17;;
32319;SDS011;19080;51.750;5.888;2022-08-25T06:21:11;4.78;;;3.40;;
32319;SDS011;19080;51.750;5.888;2022-08-25T06:23:38;4.05;;;3.08;;
32319;SDS011;19080;51.750;5.888;2022-08-25T06:26:05;7.10;;;2.85;;
32319;SDS011;19080;51.750;5.888;2022-08-25T06:28:31;10.23;;;3.05;;
32319;SDS011;19080;51.750;5.888;2022-08-25T06:30:59;7.45;;;3.40;;
32319;SDS011;19080;51.750;5.888;2022-08-25T06:33:25;9.40;;;3.03;;
32319;SDS011;19080;51.750;5.888;2022-08-25T06:35:53;9.73;;;3.67;;
32319;SDS011;19080;51.750;5.888;2022-08-25T06:38:20;5.93;;;3.10;;
32319;SDS011;19080;51.750;5.888;2022-08-25T06:40:47;10.73;;;3.35;;
32319;SDS011;19080;51.750;5.888;2022-08-25T06:43:13;4.80;;;3.42;;
32319;SDS011;19080;51.750;5.888;2022-08-25T06:45:40;5.85;;;3.55;;
32319;SDS011;19080;51.750;5.888;2022-08-25T06:48:09;4.80;;;3.20;;
32319;SDS011;19080;51.750;5.888;2022-08-25T06:50:39;5.13;;;3.33;;
32319;SDS011;19080;51.750;5.888;2022-08-25T06:53:06;7.25;;;3.55;;
32319;SDS011;19080;51.750;5.888;2022-08-25T06:55:32;9.68;;;3.20;;
32319;SDS011;19080;51.750;5.888;2022-08-25T06:58:00;6.97;;;3.70;;
32319;SDS011;19080;51.750;5.888;2022-08-25T07:00:30;8.32;;;3.65;;
32319;SDS011;19080;51.750;5.888;2022-08-25T07:02:56;8.82;;;3.47;;
32319;SDS011;19080;51.750;5.888;2022-08-25T07:05:24;7.00;;;3.38;;
32319;SDS011;19080;51.750;5.888;2022-08-25T07:08:05;10.70;;;3.90;;
32319;SDS011;19080;51.750;5.888;2022-08-25T07:10:32;11.13;;;3.40;;
32319;SDS011;19080;51.750;5.888;2022-08-25T07:12:59;10.40;;;3.97;;
32319;SDS011;19080;51.750;5.888;2022-08-25T07:15:25;7.78;;;3.40;;
32319;SDS011;19080;51.750;5.888;2022-08-25T07:17:52;6.20;;;3.22;;
32319;SDS011;19080;51.750;5.888;2022-08-25T07:20:18;7.13;;;3.05;;
32319;SDS011;19080;51.750;5.888;2022-08-25T07:22:46;5.65;;;3.10;;
32319;SDS011;19080;51.750;5.888;2022-08-25T07:25:12;11.05;;;3.78;;
32319;SDS011;19080;51.750;5.888;2022-08-25T07:27:42;4.53;;;2.92;;
32319;SDS011;19080;51.750;5.888;2022-08-25T07:30:09;7.47;;;3.25;;
32319;SDS011;19080;51.750;5.888;2022-08-25T07:32:36;7.20;;;3.75;;
32319;SDS011;19080;51.750;5.888;2022-08-25T07:35:07;5.03;;;3.13;;
32319;SDS011;19080;51.750;5.888;2022-08-25T07:37:46;6.07;;;3.03;;
32319;SDS011;19080;51.750;5.888;2022-08-25T07:40:35;7.97;;;3.63;;
32319;SDS011;19080;51.750;5.888;2022-08-25T07:43:08;8.07;;;3.65;;
32319;SDS011;19080;51.750;5.888;2022-08-25T07:45:37;5.95;;;3.42;;
32319;SDS011;19080;51.750;5.888;2022-08-25T07:48:15;7.05;;;3.42;;
32319;SDS011;19080;51.750;5.888;2022-08-25T07:50:44;14.82;;;3.65;;
32319;SDS011;19080;51.750;5.888;2022-08-25T07:53:11;6.43;;;3.17;;
32319;SDS011;19080;51.750;5.888;2022-08-25T07:55:39;11.35;;;3.42;;
32319;SDS011;19080;51.750;5.888;2022-08-25T07:58:10;8.27;;;3.58;;
32319;SDS011;19080;51.750;5.888;2022-08-25T08:00:38;7.53;;;3.60;;
32319;SDS011;19080;51.750;5.888;2022-08-25T08:03:08;9.27;;;2.92;;
32319;SDS011;19080;51.750;5.888;2022-08-25T08:05:49;5.10;;;2.65;;
32319;SDS011;19080;51.750;5.888;2022-08-25T08:08:15;8.05;;;3.30;;
32319;SDS011;19080;51.750;5.888;2022-08-25T08:10:44;9.27;;;3.15;;
32319;SDS011;19080;51.750;5.888;2022-08-25T08:13:31;8.35;;;3.10;;
32319;SDS011;19080;51.750;5.888;2022-08-25T08:16:00;7.68;;;3.30;;
32319;SDS011;19080;51.750;5.888;2022-08-25T08:18:26;4.60;;;2.75;;
32319;SDS011;19080;51.750;5.888;2022-08-25T08:20:52;6.70;;;2.55;;
32319;SDS011;19080;51.750;5.888;2022-08-25T08:23:19;8.75;;;3.03;;
32319;SDS011;19080;51.750;5.888;2022-08-25T08:25:46;9.20;;;3.30;;
32319;SDS011;19080;51.750;5.888;2022-08-25T08:28:13;7.38;;;3.10;;
32319;SDS011;19080;51.750;5.888;2022-08-25T08:30:39;6.45;;;3.03;;
32319;SDS011;19080;51.750;5.888;2022-08-25T08:33:19;4.07;;;3.03;;
32319;SDS011;19080;51.750;5.888;2022-08-25T08:35:45;5.97;;;2.95;;
32319;SDS011;19080;51.750;5.888;2022-08-25T08:38:12;12.27;;;2.88;;
32319;SDS011;19080;51.750;5.888;2022-08-25T08:40:54;5.45;;;2.65;;
32319;SDS011;19080;51.750;5.888;2022-08-25T08:43:48;6.45;;;3.13;;
32319;SDS011;19080;51.750;5.888;2022-08-25T08:46:17;4.88;;;2.90;;
32319;SDS011;19080;51.750;5.888;2022-08-25T08:48:56;9.82;;;3.15;;
32319;SDS011;19080;51.750;5.888;2022-08-25T08:51:27;9.18;;;3.35;;
32319;SDS011;19080;51.750;5.888;2022-08-25T08:54:00;4.47;;;2.95;;
32319;SDS011;19080;51.750;5.888;2022-08-25T08:58:58;5.03;;;2.88;;
32319;SDS011;19080;51.750;5.888;2022-08-25T09:01:32;9.10;;;2.97;;
32319;SDS011;19080;51.750;5.888;2022-08-25T09:06:43;4.13;;;2.40;;
32319;SDS011;19080;51.750;5.888;2022-08-25T09:09:14;9.45;;;2.80;;
32319;SDS011;19080;51.750;5.888;2022-08-25T09:14:24;6.20;;;2.90;;
32319;SDS011;19080;51.750;5.888;2022-08-25T09:19:56;6.97;;;3.28;;
32319;SDS011;19080;51.750;5.888;2022-08-25T09:22:30;7.13;;;2.55;;
32319;SDS011;19080;51.750;5.888;2022-08-25T09:25:16;4.45;;;2.78;;
32319;SDS011;19080;51.750;5.888;2022-08-25T09:30:44;8.90;;;2.63;;
32319;SDS011;19080;51.750;5.888;2022-08-25T09:33:18;7.47;;;2.85;;
32319;SDS011;19080;51.750;5.888;2022-08-25T09:35:46;5.28;;;2.60;;
32319;SDS011;19080;51.750;5.888;2022-08-25T09:38:15;4.25;;;2.38;;
32319;SDS011;19080;51.750;5.888;2022-08-25T09:40:42;8.68;;;2.55;;
32319;SDS011;19080;51.750;5.888;2022-08-25T09:43:50;7.32;;;2.60;;
32319;SDS011;19080;51.750;5.888;2022-08-25T09:46:14;8.32;;;2.63;;
32319;SDS011;19080;51.750;5.888;2022-08-25T09:51:31;4.93;;;2.50;;
32319;SDS011;19080;51.750;5.888;2022-08-25T09:57:25;6.20;;;2.72;;
32319;SDS011;19080;51.750;5.888;2022-08-25T09:59:36;8.75;;;2.65;;
32319;SDS011;19080;51.750;5.888;2022-08-25T10:02:20;9.55;;;2.47;;
32319;SDS011;19080;51.750;5.888;2022-08-25T10:04:49;9.02;;;3.15;;
32319;SDS011;19080;51.750;5.888;2022-08-25T10:07:29;4.53;;;2.50;;
32319;SDS011;19080;51.750;5.888;2022-08-25T10:12:28;3.97;;;2.05;;
32319;SDS011;19080;51.750;5.888;2022-08-25T10:14:59;4.13;;;2.42;;
32319;SDS011;19080;51.750;5.888;2022-08-25T10:20:12;5.32;;;2.35;;
32319;SDS011;19080;51.750;5.888;2022-08-25T10:22:41;3.60;;;2.45;;
32319;SDS011;19080;51.750;5.888;2022-08-25T10:25:09;4.72;;;2.20;;
32319;SDS011;19080;51.750;5.888;2022-08-25T10:27:48;5.15;;;2.47;;
32319;SDS011;19080;51.750;5.888;2022-08-25T10:30:30;4.40;;;2.05;;
32319;SDS011;19080;51.750;5.888;2022-08-25T10:33:21;2.00;;;1.50;;
32319;SDS011;19080;51.750;5.888;2022-08-25T10:38:27;4.35;;;1.85;;
32319;SDS011;19080;51.750;5.888;2022-08-25T10:48:54;8.82;;;2.30;;
32319;SDS011;19080;51.750;5.888;2022-08-25T10:53:55;3.38;;;1.95;;
32319;SDS011;19080;51.750;5.888;2022-08-25T10:56:24;3.08;;;1.95;;
32319;SDS011;19080;51.750;5.888;2022-08-25T10:58:55;2.85;;;2.13;;
32319;SDS011;19080;51.750;5.888;2022-08-25T11:04:13;5.45;;;1.90;;
32319;SDS011;19080;51.750;5.888;2022-08-25T11:06:42;4.30;;;2.20;;
32319;SDS011;19080;51.750;5.888;2022-08-25T11:09:19;3.72;;;1.98;;
32319;SDS011;19080;51.750;5.888;2022-08-25T11:19:31;3.92;;;1.40;;
32319;SDS011;19080;51.750;5.888;2022-08-25T11:24:50;2.80;;;1.45;;
32319;SDS011;19080;51.750;5.888;2022-08-25T11:27:22;2.38;;;1.50;;
32319;SDS011;19080;51.750;5.888;2022-08-25T11:32:17;3.15;;;1.50;;
32319;SDS011;19080;51.750;5.888;2022-08-25T11:34:44;3.08;;;1.60;;
32319;SDS011;19080;51.750;5.888;2022-08-25T11:37:13;3.17;;;1.60;;
32319;SDS011;19080;51.750;5.888;2022-08-25T11:50:30;2.17;;;1.50;;
32319;SDS011;19080;51.750;5.888;2022-08-25T11:53:21;2.22;;;1.20;;
32319;SDS011;19080;51.750;5.888;2022-08-25T11:55:56;4.35;;;1.75;;
32319;SDS011;19080;51.750;5.888;2022-08-25T12:00:56;2.65;;;1.83;;
32319;SDS011;19080;51.750;5.888;2022-08-25T12:06:14;4.20;;;1.50;;
32319;SDS011;19080;51.750;5.888;2022-08-25T12:19:27;4.97;;;1.60;;
32319;SDS011;19080;51.750;5.888;2022-08-25T12:22:37;3.38;;;1.45;;
32319;SDS011;19080;51.750;5.888;2022-08-25T12:27:47;2.65;;;1.55;;
32319;SDS011;19080;51.750;5.888;2022-08-25T12:30:26;1.65;;;1.40;;
32319;SDS011;19080;51.750;5.888;2022-08-25T12:33:08;1.75;;;1.50;;
32319;SDS011;19080;51.750;5.888;2022-08-25T12:41:23;5.88;;;1.88;;
32319;SDS011;19080;51.750;5.888;2022-08-25T12:43:52;1.70;;;1.40;;
32319;SDS011;19080;51.750;5.888;2022-08-25T12:54:00;1.98;;;1.45;;
32319;SDS011;19080;51.750;5.888;2022-08-25T12:56:41;1.83;;;1.60;;
32319;SDS011;19080;51.750;5.888;2022-08-25T12:59:17;2.53;;;1.70;;
32319;SDS011;19080;51.750;5.888;2022-08-25T13:02:00;4.55;;;1.77;;
32319;SDS011;19080;51.750;5.888;2022-08-25T13:07:20;3.20;;;1.90;;
32319;SDS011;19080;51.750;5.888;2022-08-25T13:10:07;4.97;;;1.70;;
32319;SDS011;19080;51.750;5.888;2022-08-25T13:15:26;2.95;;;1.73;;
32319;SDS011;19080;51.750;5.888;2022-08-25T13:17:53;4.28;;;1.60;;
32319;SDS011;19080;51.750;5.888;2022-08-25T13:20:24;2.60;;;1.70;;
32319;SDS011;19080;51.750;5.888;2022-08-25T13:22:52;3.55;;;1.80;;
32319;SDS011;19080;51.750;5.888;2022-08-25T13:25:23;2.60;;;1.80;;
32319;SDS011;19080;51.750;5.888;2022-08-25T13:28:02;1.88;;;1.42;;
32319;SDS011;19080;51.750;5.888;2022-08-25T13:30:30;4.78;;;1.63;;
32319;SDS011;19080;51.750;5.888;2022-08-25T13:32:57;2.10;;;1.60;;
32319;SDS011;19080;51.750;5.888;2022-08-25T13:35:25;4.43;;;1.80;;
32319;SDS011;19080;51.750;5.888;2022-08-25T13:38:17;4.30;;;1.63;;
32319;SDS011;19080;51.750;5.888;2022-08-25T13:40:44;2.15;;;1.30;;
32319;SDS011;19080;51.750;5.888;2022-08-25T13:43:11;3.38;;;1.60;;
32319;SDS011;19080;51.750;5.888;2022-08-25T13:45:40;2.83;;;1.83;;
32319;SDS011;19080;51.750;5.888;2022-08-25T13:48:09;4.47;;;1.60;;
32319;SDS011;19080;51.750;5.888;2022-08-25T13:50:48;1.88;;;1.77;;
32319;SDS011;19080;51.750;5.888;2022-08-25T13:53:22;5.13;;;1.70;;
32319;SDS011;19080;51.750;5.888;2022-08-25T13:55:51;3.15;;;1.50;;
32319;SDS011;19080;51.750;5.888;2022-08-25T13:58:22;4.32;;;1.50;;
32319;SDS011;19080;51.750;5.888;2022-08-25T14:01:15;3.03;;;1.77;;
32319;SDS011;19080;51.750;5.888;2022-08-25T14:04:43;3.85;;;1.40;;
32319;SDS011;19080;51.750;5.888;2022-08-25T14:09:36;3.13;;;1.50;;
32319;SDS011;19080;51.750;5.888;2022-08-25T14:12:03;1.80;;;1.40;;
32319;SDS011;19080;51.750;5.888;2022-08-25T14:14:31;3.40;;;1.83;;
32319;SDS011;19080;51.750;5.888;2022-08-25T14:17:06;3.22;;;1.98;;
32319;SDS011;19080;51.750;5.888;2022-08-25T14:19:53;1.75;;;1.48;;
32319;SDS011;19080;51.750;5.888;2022-08-25T14:22:20;2.15;;;1.30;;
32319;SDS011;19080;51.750;5.888;2022-08-25T14:24:46;1.73;;;1.50;;
32319;SDS011;19080;51.750;5.888;2022-08-25T14:27:13;3.38;;;1.60;;
32319;SDS011;19080;51.750;5.888;2022-08-25T14:29:40;5.20;;;1.88;;
32319;SDS011;19080;51.750;5.888;2022-08-25T14:32:06;3.72;;;1.45;;
32319;SDS011;19080;51.750;5.888;2022-08-25T14:34:35;3.15;;;1.85;;
32319;SDS011;19080;51.750;5.888;2022-08-25T14:37:10;2.17;;;1.60;;
32319;SDS011;19080;51.750;5.888;2022-08-25T14:39:40;5.55;;;1.83;;
32319;SDS011;19080;51.750;5.888;2022-08-25T14:42:09;2.05;;;1.60;;
32319;SDS011;19080;51.750;5.888;2022-08-25T14:44:36;2.05;;;1.77;;
32319;SDS011;19080;51.750;5.888;2022-08-25T14:47:04;3.65;;;1.75;;
32319;SDS011;19080;51.750;5.888;2022-08-25T14:49:34;2.08;;;1.50;;
32319;SDS011;19080;51.750;5.888;2022-08-25T14:52:07;2.43;;;1.40;;
32319;SDS011;19080;51.750;5.888;2022-08-25T14:54:34;4.00;;;1.52;;
32319;SDS011;19080;51.750;5.888;2022-08-25T14:57:03;2.92;;;1.60;;
32319;SDS011;19080;51.750;5.888;2022-08-25T14:59:33;2.38;;;1.60;;
32319;SDS011;19080;51.750;5.888;2022-08-25T15:02:00;1.52;;;1.30;;
32319;SDS011;19080;51.750;5.888;2022-08-25T15:04:27;3.63;;;1.48;;
32319;SDS011;19080;51.750;5.888;2022-08-25T15:06:55;2.95;;;1.70;;
32319;SDS011;19080;51.750;5.888;2022-08-25T15:09:23;3.22;;;1.65;;
32319;SDS011;19080;51.750;5.888;2022-08-25T15:11:50;2.00;;;1.50;;
32319;SDS011;19080;51.750;5.888;2022-08-25T15:14:20;3.97;;;1.67;;
32319;SDS011;19080;51.750;5.888;2022-08-25T15:16:54;4.05;;;1.48;;
32319;SDS011;19080;51.750;5.888;2022-08-25T15:19:23;3.13;;;1.65;;
32319;SDS011;19080;51.750;5.888;2022-08-25T15:21:50;3.75;;;1.65;;
32319;SDS011;19080;51.750;5.888;2022-08-25T15:24:17;6.97;;;1.63;;
32319;SDS011;19080;51.750;5.888;2022-08-25T15:26:49;2.63;;;1.30;;
32319;SDS011;19080;51.750;5.888;2022-08-25T15:29:22;3.13;;;1.48;;
32319;SDS011;19080;51.750;5.888;2022-08-25T15:31:49;2.20;;;1.55;;
32319;SDS011;19080;51.750;5.888;2022-08-25T15:34:16;1.55;;;1.45;;
32319;SDS011;19080;51.750;5.888;2022-08-25T15:36:43;2.33;;;1.50;;
32319;SDS011;19080;51.750;5.888;2022-08-25T15:39:10;1.95;;;1.45;;
32319;SDS011;19080;51.750;5.888;2022-08-25T15:41:36;5.07;;;1.90;;
32319;SDS011;19080;51.750;5.888;2022-08-25T15:44:04;3.22;;;1.77;;
32319;SDS011;19080;51.750;5.888;2022-08-25T15:46:33;4.80;;;1.60;;
32319;SDS011;19080;51.750;5.888;2022-08-25T15:49:00;2.88;;;1.67;;
32319;SDS011;19080;51.750;5.888;2022-08-25T15:51:27;2.72;;;1.55;;
32319;SDS011;19080;51.750;5.888;2022-08-25T15:53:54;3.42;;;1.88;;
32319;SDS011;19080;51.750;5.888;2022-08-25T15:56:20;5.60;;;1.98;;
32319;SDS011;19080;51.750;5.888;2022-08-25T15:58:52;3.03;;;1.60;;
32319;SDS011;19080;51.750;5.888;2022-08-25T16:01:20;3.28;;;1.63;;
32319;SDS011;19080;51.750;5.888;2022-08-25T16:06:16;2.83;;;1.85;;
32319;SDS011;19080;51.750;5.888;2022-08-25T16:08:43;3.58;;;1.77;;
32319;SDS011;19080;51.750;5.888;2022-08-25T16:11:17;2.85;;;2.50;;
32319;SDS011;19080;51.750;5.888;2022-08-25T16:13:44;2.97;;;1.75;;
32319;SDS011;19080;51.750;5.888;2022-08-25T16:16:11;3.58;;;2.70;;
32319;SDS011;19080;51.750;5.888;2022-08-25T16:18:38;3.72;;;1.80;;
32319;SDS011;19080;51.750;5.888;2022-08-25T16:21:07;4.13;;;1.92;;
32319;SDS011;19080;51.750;5.888;2022-08-25T16:23:38;1.50;;;1.30;;
32319;SDS011;19080;51.750;5.888;2022-08-25T16:26:05;2.13;;;1.42;;
32319;SDS011;19080;51.750;5.888;2022-08-25T16:28:36;4.50;;;1.70;;
32319;SDS011;19080;51.750;5.888;2022-08-25T16:31:02;1.90;;;1.40;;
32319;SDS011;19080;51.750;5.888;2022-08-25T16:33:29;2.25;;;1.67;;
32319;SDS011;19080;51.750;5.888;2022-08-25T16:36:10;4.18;;;1.55;;
32319;SDS011;19080;51.750;5.888;2022-08-25T16:38:38;2.75;;;1.95;;
32319;SDS011;19080;51.750;5.888;2022-08-25T16:41:09;2.33;;;1.35;;
32319;SDS011;19080;51.750;5.888;2022-08-25T16:43:36;4.05;;;1.67;;
32319;SDS011;19080;51.750;5.888;2022-08-25T16:46:05;3.70;;;1.90;;
32319;SDS011;19080;51.750;5.888;2022-08-25T16:48:32;3.78;;;2.58;;
32319;SDS011;19080;51.750;5.888;2022-08-25T16:50:59;5.03;;;2.13;;
32319;SDS011;19080;51.750;5.888;2022-08-25T16:53:25;2.00;;;1.75;;
32319;SDS011;19080;51.750;5.888;2022-08-25T16:56:14;2.97;;;1.80;;
32319;SDS011;19080;51.750;5.888;2022-08-25T16:58:41;3.08;;;1.60;;